createdAt,value
2017-10-30T00:00:13.591Z,5.60
2017-10-30T00:02:39.979Z,5.60
2017-10-30T00:05:06.335Z,5.50
2017-10-30T00:07:32.646Z,5.50
2017-10-30T00:09:58.953Z,5.50
2017-10-30T00:12:25.996Z,5.50
2017-10-30T00:14:53.242Z,5.50
2017-10-30T00:17:19.513Z,5.60
2017-10-30T00:19:45.798Z,5.60
2017-10-30T00:22:12.138Z,5.60
2017-10-30T00:24:38.535Z,5.60
2017-10-30T00:27:04.903Z,5.60
2017-10-30T00:29:31.302Z,5.60
2017-10-30T00:31:57.637Z,5.60
2017-10-30T00:34:23.944Z,5.60
2017-10-30T00:36:51.486Z,5.70
2017-10-30T00:39:17.791Z,5.60
2017-10-30T00:41:44.047Z,5.70
2017-10-30T00:44:10.717Z,5.60
2017-10-30T00:46:36.993Z,5.50
2017-10-30T00:49:03.301Z,5.60
2017-10-30T00:51:29.583Z,5.50
2017-10-30T00:53:56.584Z,5.50
2017-10-30T00:56:22.883Z,5.50
2017-10-30T00:58:49.285Z,5.50
2017-10-30T01:01:15.629Z,5.50
2017-10-30T01:03:42.722Z,5.50
2017-10-30T01:06:09.043Z,5.50
2017-10-30T01:08:36.214Z,5.50
2017-10-30T01:11:02.537Z,5.50
2017-10-30T01:13:28.810Z,5.50
2017-10-30T01:15:55.910Z,5.70
2017-10-30T01:18:22.232Z,5.60
2017-10-30T01:20:48.545Z,5.70
2017-10-30T01:23:15.599Z,5.80
2017-10-30T01:25:42.570Z,5.80
2017-10-30T01:28:09.308Z,5.80
2017-10-30T01:30:35.657Z,5.80
2017-10-30T01:33:01.961Z,5.80
2017-10-30T01:35:28.243Z,5.80
2017-10-30T01:37:54.644Z,5.80
2017-10-30T01:40:21.037Z,5.90
2017-10-30T01:42:48.066Z,5.90
2017-10-30T01:45:15.194Z,5.90
2017-10-30T01:47:41.539Z,5.90
2017-10-30T01:50:07.862Z,6.00
2017-10-30T01:52:34.206Z,6.00
2017-10-30T01:55:00.490Z,6.00
2017-10-30T01:57:26.785Z,6.00
2017-10-30T01:59:53.834Z,6.00
2017-10-30T02:02:21.016Z,6.00
2017-10-30T02:04:47.697Z,6.00
2017-10-30T02:07:14.865Z,6.00
2017-10-30T02:09:48.823Z,6.00
2017-10-30T02:12:15.315Z,6.00
2017-10-30T02:14:42.409Z,6.00
2017-10-30T02:17:08.700Z,6.00
2017-10-30T02:19:35.729Z,6.10
2017-10-30T02:22:02.792Z,6.00
2017-10-30T02:24:29.821Z,6.00
2017-10-30T02:26:56.148Z,6.00
2017-10-30T02:29:22.430Z,6.00
2017-10-30T02:31:48.879Z,6.00
2017-10-30T02:34:15.274Z,6.00
2017-10-30T02:36:42.314Z,6.10
2017-10-30T02:39:09.448Z,6.10
2017-10-30T02:41:35.775Z,6.10
2017-10-30T02:44:02.165Z,6.20
2017-10-30T02:46:28.568Z,6.20
2017-10-30T02:48:55.717Z,6.30
2017-10-30T02:51:23.771Z,6.30
2017-10-30T02:53:50.901Z,6.30
2017-10-30T02:56:17.262Z,6.30
2017-10-30T02:58:44.378Z,6.30
2017-10-30T03:01:17.884Z,6.30
2017-10-30T03:03:44.237Z,6.40
2017-10-30T03:06:11.329Z,6.30
2017-10-30T03:08:37.736Z,6.30
2017-10-30T03:11:04.069Z,6.30
2017-10-30T03:13:30.521Z,6.30
2017-10-30T03:15:56.822Z,6.30
2017-10-30T03:18:23.905Z,6.40
2017-10-30T03:20:50.197Z,6.40
2017-10-30T03:23:17.247Z,6.50
2017-10-30T03:25:44.391Z,6.50
2017-10-30T03:28:10.722Z,6.40
2017-10-30T03:30:37.073Z,6.40
2017-10-30T03:33:03.426Z,6.40
2017-10-30T03:35:29.784Z,6.40
2017-10-30T03:37:56.084Z,6.40
2017-10-30T03:40:22.444Z,6.40
2017-10-30T03:42:48.756Z,6.40
2017-10-30T03:45:15.116Z,6.50
2017-10-30T03:47:41.473Z,6.40
2017-10-30T03:50:08.626Z,6.40
2017-10-30T03:52:35.713Z,6.30
2017-10-30T03:55:02.086Z,6.30
2017-10-30T03:57:28.410Z,6.30
2017-10-30T03:59:55.729Z,6.30
2017-10-30T04:02:22.777Z,6.30
2017-10-30T04:04:49.145Z,6.30
2017-10-30T04:07:15.465Z,6.30
2017-10-30T04:09:41.771Z,6.40
2017-10-30T04:12:08.066Z,6.40
2017-10-30T04:14:34.362Z,6.40
2017-10-30T04:17:00.698Z,6.50
2017-10-30T04:19:26.966Z,6.40
2017-10-30T04:21:54.066Z,6.40
2017-10-30T04:24:20.436Z,6.40
2017-10-30T04:26:47.486Z,6.40
2017-10-30T04:29:13.820Z,6.40
2017-10-30T04:31:40.886Z,6.40
2017-10-30T04:34:07.327Z,6.40
2017-10-30T04:36:33.683Z,6.40
2017-10-30T04:39:00.077Z,6.40
2017-10-30T04:41:27.988Z,6.40
2017-10-30T04:43:55.546Z,6.40
2017-10-30T04:46:21.831Z,6.40
2017-10-30T04:48:48.186Z,6.30
2017-10-30T04:51:14.471Z,6.30
2017-10-30T04:53:40.821Z,6.20
2017-10-30T04:56:07.251Z,6.10
2017-10-30T04:58:33.612Z,6.10
2017-10-30T05:01:01.957Z,6.10
2017-10-30T05:03:28.319Z,6.10
2017-10-30T05:05:59.210Z,6.10
2017-10-30T05:08:25.503Z,6.20
2017-10-30T05:10:51.874Z,6.20
2017-10-30T05:13:18.412Z,6.20
2017-10-30T05:15:44.734Z,6.20
2017-10-30T05:18:11.070Z,6.20
2017-10-30T05:20:37.429Z,6.10
2017-10-30T05:23:03.725Z,6.20
2017-10-30T05:25:30.030Z,6.10
2017-10-30T05:27:56.473Z,6.00
2017-10-30T05:30:22.826Z,6.00
2017-10-30T05:32:49.171Z,5.90
2017-10-30T05:35:15.572Z,5.90
2017-10-30T05:37:42.087Z,6.00
2017-10-30T05:40:08.475Z,5.90
2017-10-30T05:42:34.860Z,5.90
2017-10-30T05:45:01.193Z,5.80
2017-10-30T05:47:29.708Z,5.80
2017-10-30T05:49:56.275Z,5.80
2017-10-30T05:52:22.674Z,5.70
2017-10-30T05:54:49.168Z,5.70
2017-10-30T05:57:15.468Z,5.70
2017-10-30T05:59:41.799Z,5.70
2017-10-30T06:02:08.904Z,5.80
2017-10-30T06:04:35.298Z,5.80
2017-10-30T06:07:01.838Z,5.80
2017-10-30T06:09:29.107Z,5.90
2017-10-30T06:11:55.500Z,5.90
2017-10-30T06:14:22.628Z,6.00
2017-10-30T06:16:48.980Z,5.90
2017-10-30T06:19:16.126Z,5.90
2017-10-30T06:21:43.215Z,5.90
2017-10-30T06:24:09.520Z,5.90
2017-10-30T06:26:36.616Z,5.80
2017-10-30T06:29:03.070Z,5.80
2017-10-30T06:31:29.370Z,5.80
2017-10-30T06:33:55.850Z,5.90
2017-10-30T06:36:23.043Z,5.90
2017-10-30T06:38:49.380Z,6.00
2017-10-30T06:41:15.677Z,6.10
2017-10-30T06:43:42.733Z,6.20
2017-10-30T06:46:09.771Z,6.20
2017-10-30T06:48:36.812Z,6.30
2017-10-30T06:51:03.975Z,6.30
2017-10-30T06:53:31.044Z,6.40
2017-10-30T06:55:57.425Z,6.40
2017-10-30T06:58:24.093Z,6.40
2017-10-30T07:00:50.764Z,6.40
2017-10-30T07:03:17.129Z,6.30
2017-10-30T07:05:43.485Z,6.40
2017-10-30T07:08:09.874Z,6.30
2017-10-30T07:10:36.601Z,6.40
2017-10-30T07:13:02.924Z,6.40
2017-10-30T07:15:29.228Z,6.40
2017-10-30T07:17:56.400Z,6.50
2017-10-30T07:20:22.704Z,6.50
2017-10-30T07:22:49.927Z,6.50
2017-10-30T07:25:16.284Z,6.40
2017-10-30T07:27:43.436Z,6.50
2017-10-30T07:30:09.941Z,6.40
2017-10-30T07:32:36.370Z,6.40
2017-10-30T07:35:02.722Z,6.50
2017-10-30T07:37:29.149Z,6.60
2017-10-30T07:39:55.567Z,6.50
2017-10-30T07:42:21.964Z,6.60
2017-10-30T07:44:48.283Z,6.50
2017-10-30T07:47:14.602Z,6.40
2017-10-30T07:49:41.744Z,6.50
2017-10-30T07:52:08.149Z,6.50
2017-10-30T07:54:34.816Z,6.70
2017-10-30T07:57:01.993Z,6.80
2017-10-30T07:59:28.325Z,6.80
2017-10-30T08:01:54.689Z,6.90
2017-10-30T08:04:21.260Z,7.00
2017-10-30T08:06:47.623Z,7.00
2017-10-30T08:09:15.115Z,6.90
2017-10-30T08:11:47.410Z,7.10
2017-10-30T08:14:13.822Z,7.40
2017-10-30T08:16:40.170Z,7.30
2017-10-30T08:19:06.527Z,7.10
2017-10-30T08:21:33.165Z,6.90
2017-10-30T08:24:00.541Z,6.90
2017-10-30T08:26:27.483Z,6.90
2017-10-30T08:28:55.717Z,6.80
2017-10-30T08:31:22.318Z,6.80
2017-10-30T08:33:49.346Z,6.80
2017-10-30T08:36:15.667Z,7.00
2017-10-30T08:38:43.727Z,7.20
2017-10-30T08:41:10.226Z,7.20
2017-10-30T08:43:36.774Z,7.50
2017-10-30T08:46:03.445Z,7.60
2017-10-30T08:48:30.568Z,7.80
2017-10-30T08:50:56.940Z,7.80
2017-10-30T08:53:30.530Z,7.80
2017-10-30T08:55:57.079Z,7.70
2017-10-30T08:58:23.574Z,7.60
2017-10-30T09:00:50.250Z,7.60
2017-10-30T09:03:17.423Z,7.70
2017-10-30T09:05:43.886Z,7.70
2017-10-30T09:08:10.278Z,7.70
2017-10-30T09:10:36.649Z,7.90
2017-10-30T09:13:09.302Z,8.20
2017-10-30T09:15:35.734Z,8.00
2017-10-30T09:18:02.093Z,7.90
2017-10-30T09:20:28.460Z,8.00
2017-10-30T09:22:55.584Z,8.20
2017-10-30T09:25:21.928Z,8.20
2017-10-30T09:28:05.774Z,8.10
2017-10-30T09:30:32.339Z,8.00
2017-10-30T09:33:00.463Z,8.30
2017-10-30T09:35:35.037Z,8.30
2017-10-30T09:38:01.495Z,8.30
2017-10-30T09:40:29.958Z,8.00
2017-10-30T09:42:57.066Z,8.20
2017-10-30T09:45:23.391Z,8.20
2017-10-30T09:47:49.867Z,8.10
2017-10-30T09:50:16.984Z,8.20
2017-10-30T09:52:43.400Z,8.10
2017-10-30T09:55:10.637Z,8.10
2017-10-30T09:57:37.056Z,8.30
2017-10-30T10:00:03.544Z,8.40
2017-10-30T10:02:29.832Z,8.60
2017-10-30T10:04:56.301Z,8.70
2017-10-30T10:07:22.697Z,8.70
2017-10-30T10:09:50.156Z,8.60
2017-10-30T10:12:16.848Z,8.20
2017-10-30T10:14:44.056Z,8.40
2017-10-30T10:17:10.406Z,8.30
2017-10-30T10:19:36.900Z,8.60
2017-10-30T10:22:03.263Z,8.80
2017-10-30T10:24:29.810Z,8.90
2017-10-30T10:26:56.278Z,9.00
2017-10-30T10:29:23.352Z,8.90
2017-10-30T10:31:49.785Z,8.90
2017-10-30T10:34:16.281Z,9.00
2017-10-30T10:36:42.675Z,8.80
2017-10-30T10:39:09.078Z,8.80
2017-10-30T10:41:35.537Z,8.90
2017-10-30T10:44:01.979Z,8.90
2017-10-30T10:46:28.315Z,9.10
2017-10-30T10:48:54.724Z,9.10
2017-10-30T10:51:21.108Z,9.20
2017-10-30T10:53:47.452Z,9.40
2017-10-30T10:56:14.595Z,9.40
2017-10-30T10:58:40.990Z,9.40
2017-10-30T11:01:07.339Z,9.40
2017-10-30T11:03:33.809Z,9.30
2017-10-30T11:06:00.869Z,9.70
2017-10-30T11:08:27.225Z,9.60
2017-10-30T11:10:53.578Z,10.10
2017-10-30T11:13:19.962Z,10.10
2017-10-30T11:15:47.052Z,9.90
2017-10-30T11:18:14.170Z,10.70
2017-10-30T11:20:40.666Z,10.70
2017-10-30T11:23:07.040Z,11.90
2017-10-30T11:25:33.353Z,12.70
2017-10-30T11:28:00.569Z,11.50
2017-10-30T11:30:27.022Z,11.50
2017-10-30T11:33:00.767Z,11.70
2017-10-30T11:35:27.133Z,11.80
2017-10-30T11:37:53.516Z,11.20
2017-10-30T11:40:20.602Z,11.00
2017-10-30T11:42:47.026Z,11.00
2017-10-30T11:45:13.488Z,10.60
2017-10-30T11:47:39.859Z,11.80
2017-10-30T11:50:06.997Z,10.90
2017-10-30T11:52:34.103Z,10.90
2017-10-30T11:55:00.481Z,10.90
2017-10-30T11:57:27.573Z,13.80
2017-10-30T11:59:53.959Z,13.80
2017-10-30T12:02:20.351Z,14.30
2017-10-30T12:04:46.808Z,15.40
2017-10-30T12:07:13.258Z,15.50
2017-10-30T12:09:39.676Z,16.90
2017-10-30T12:12:06.017Z,17.40
2017-10-30T12:14:32.553Z,17.30
2017-10-30T12:16:58.895Z,18.80
2017-10-30T12:19:26.023Z,16.00
2017-10-30T12:21:52.380Z,16.00
2017-10-30T12:24:19.536Z,17.00
2017-10-30T12:26:46.787Z,18.10
2017-10-30T12:29:13.881Z,17.90
2017-10-30T12:31:40.259Z,17.90
2017-10-30T12:34:07.680Z,16.20
2017-10-30T12:36:34.142Z,16.10
2017-10-30T12:39:00.559Z,16.00
2017-10-30T12:41:26.901Z,14.70
2017-10-30T12:43:53.248Z,12.50
2017-10-30T12:46:20.367Z,13.00
2017-10-30T12:48:46.684Z,13.00
2017-10-30T12:51:13.108Z,15.70
2017-10-30T12:53:39.437Z,17.70
2017-10-30T12:56:05.865Z,18.30
2017-10-30T12:58:32.180Z,19.60
2017-10-30T13:00:58.465Z,19.10
2017-10-30T13:03:24.851Z,19.00
2017-10-30T13:05:51.196Z,20.30
2017-10-30T13:08:17.636Z,20.40
2017-10-30T13:10:44.025Z,21.00
2017-10-30T13:13:11.180Z,18.60
2017-10-30T13:15:38.217Z,17.30
2017-10-30T13:18:05.598Z,16.80
2017-10-30T13:20:31.980Z,16.70
2017-10-30T13:22:58.429Z,15.40
2017-10-30T13:25:24.702Z,13.50
2017-10-30T13:27:50.996Z,11.60
2017-10-30T13:30:18.149Z,11.90
2017-10-30T13:32:45.358Z,10.70
2017-10-30T13:35:11.831Z,10.60
2017-10-30T13:37:38.990Z,12.00
2017-10-30T13:40:06.250Z,12.40
2017-10-30T13:42:33.649Z,12.70
2017-10-30T13:44:59.997Z,12.70
2017-10-30T13:47:26.494Z,12.40
2017-10-30T13:49:52.904Z,11.60
2017-10-30T13:52:20.014Z,10.80
2017-10-30T13:54:46.473Z,10.80
2017-10-30T13:57:12.838Z,10.10
2017-10-30T13:59:39.523Z,9.60
2017-10-30T14:02:05.824Z,9.00
2017-10-30T14:04:32.281Z,8.70
2017-10-30T14:06:58.755Z,8.50
2017-10-30T14:09:25.864Z,8.50
2017-10-30T14:11:52.220Z,8.50
2017-10-30T14:14:18.546Z,8.50
2017-10-30T14:16:46.357Z,8.90
2017-10-30T14:19:12.678Z,9.00
2017-10-30T14:21:39.022Z,10.50
2017-10-30T14:24:05.426Z,10.30
2017-10-30T14:26:32.481Z,10.20
2017-10-30T14:28:59.545Z,9.50
2017-10-30T14:31:25.940Z,9.40
2017-10-30T14:33:52.241Z,8.80
2017-10-30T14:36:18.571Z,8.40
2017-10-30T14:38:45.008Z,8.20
2017-10-30T14:41:11.459Z,8.10
2017-10-30T14:43:37.934Z,8.00
2017-10-30T14:46:04.410Z,8.00
2017-10-30T14:48:30.790Z,8.00
2017-10-30T14:50:57.842Z,7.90
2017-10-30T14:53:24.247Z,7.90
2017-10-30T14:55:50.554Z,7.90
2017-10-30T14:58:16.970Z,7.80
2017-10-30T15:00:43.346Z,7.80
2017-10-30T15:03:09.694Z,7.80
2017-10-30T15:05:37.033Z,7.80
2017-10-30T15:08:03.484Z,7.80
2017-10-30T15:10:30.177Z,7.80
2017-10-30T15:12:56.545Z,7.80
2017-10-30T15:15:22.921Z,7.80
2017-10-30T15:17:49.371Z,7.80
2017-10-30T15:20:15.809Z,7.80
2017-10-30T15:22:42.296Z,7.70
2017-10-30T15:25:09.419Z,7.60
2017-10-30T15:27:35.934Z,7.60
2017-10-30T15:30:02.388Z,7.50
2017-10-30T15:32:28.869Z,7.50
2017-10-30T15:34:55.253Z,7.50
2017-10-30T15:37:23.738Z,7.40
2017-10-30T15:39:50.122Z,7.40
2017-10-30T15:42:16.563Z,7.20
2017-10-30T15:44:42.927Z,7.20
2017-10-30T15:47:09.356Z,7.10
2017-10-30T15:49:35.873Z,7.00
2017-10-30T15:52:02.341Z,6.90
2017-10-30T15:54:28.767Z,6.80
2017-10-30T15:56:55.397Z,6.70
2017-10-30T15:59:21.793Z,6.60
2017-10-30T16:01:48.161Z,6.50
2017-10-30T16:04:14.527Z,6.50
2017-10-30T16:06:40.945Z,6.50
2017-10-30T16:09:07.729Z,6.50
2017-10-30T16:11:34.101Z,6.40
2017-10-30T16:14:01.880Z,6.40
2017-10-30T16:16:28.198Z,6.40
2017-10-30T16:18:54.636Z,6.40
2017-10-30T16:21:21.013Z,6.30
2017-10-30T16:23:48.038Z,6.30
2017-10-30T16:26:14.802Z,6.20
2017-10-30T16:28:41.204Z,6.20
2017-10-30T16:31:07.518Z,6.20
2017-10-30T16:33:33.882Z,6.20
2017-10-30T16:36:00.960Z,6.20
2017-10-30T16:38:27.335Z,6.10
2017-10-30T16:40:53.762Z,6.20
2017-10-30T16:43:20.127Z,6.20
2017-10-30T16:45:47.223Z,6.10
2017-10-30T16:48:13.546Z,6.10
2017-10-30T16:50:39.816Z,6.10
2017-10-30T16:53:06.575Z,6.00
2017-10-30T16:55:32.844Z,6.00
2017-10-30T16:57:59.225Z,6.00
2017-10-30T17:00:25.561Z,5.90
2017-10-30T17:02:51.995Z,5.80
2017-10-30T17:05:19.107Z,5.80
2017-10-30T17:07:45.444Z,5.80
2017-10-30T17:10:11.766Z,5.80
2017-10-30T17:12:38.104Z,5.80
2017-10-30T17:15:04.472Z,5.70
2017-10-30T17:17:30.869Z,5.70
2017-10-30T17:19:57.404Z,5.70
2017-10-30T17:22:23.875Z,5.70
2017-10-30T17:24:51.131Z,5.70
2017-10-30T17:27:18.204Z,5.60
2017-10-30T17:29:44.542Z,5.60
2017-10-30T17:32:10.887Z,5.50
2017-10-30T17:34:37.362Z,5.50
2017-10-30T17:37:03.698Z,5.50
2017-10-30T17:39:30.021Z,5.40
2017-10-30T17:41:57.140Z,5.40
2017-10-30T17:44:23.434Z,5.40
2017-10-30T17:46:49.772Z,5.30
2017-10-30T17:49:16.863Z,5.30
2017-10-30T17:51:43.240Z,5.30
2017-10-30T17:54:10.543Z,5.30
2017-10-30T17:56:36.839Z,5.20
2017-10-30T17:59:03.895Z,5.30
2017-10-30T18:01:30.286Z,5.30
2017-10-30T18:03:56.665Z,5.30
2017-10-30T18:06:23.005Z,5.30
2017-10-30T18:08:49.313Z,5.30
2017-10-30T18:11:16.355Z,5.30
2017-10-30T18:13:43.389Z,5.20
2017-10-30T18:16:10.530Z,5.20
2017-10-30T18:18:36.946Z,5.10
2017-10-30T18:21:03.352Z,5.10
2017-10-30T18:23:29.742Z,5.10
2017-10-30T18:25:56.046Z,5.10
2017-10-30T18:28:22.497Z,5.10
2017-10-30T18:30:48.892Z,5.00
2017-10-30T18:33:15.218Z,5.00
2017-10-30T18:35:41.581Z,5.00
2017-10-30T18:38:08.010Z,4.90
2017-10-30T18:40:34.487Z,5.00
2017-10-30T18:43:00.836Z,5.00
2017-10-30T18:45:27.160Z,4.90
2017-10-30T18:47:53.474Z,4.90
2017-10-30T18:50:20.581Z,4.80
2017-10-30T18:52:46.989Z,4.80
2017-10-30T18:55:13.355Z,4.80
2017-10-30T18:57:39.654Z,4.70
2017-10-30T19:00:06.021Z,4.70
2017-10-30T19:02:32.386Z,4.70
2017-10-30T19:04:59.425Z,4.80
2017-10-30T19:07:25.917Z,4.80
2017-10-30T19:09:52.358Z,4.80
2017-10-30T19:12:18.691Z,4.80
2017-10-30T19:14:45.076Z,4.80
2017-10-30T19:17:11.675Z,4.80
2017-10-30T19:19:38.130Z,4.80
2017-10-30T19:22:05.203Z,4.70
2017-10-30T19:24:31.606Z,4.70
2017-10-30T19:26:58.755Z,4.70
2017-10-30T19:29:25.199Z,4.70
2017-10-30T19:31:52.300Z,4.80
2017-10-30T19:34:18.704Z,4.80
2017-10-30T19:36:45.170Z,4.90
2017-10-30T19:39:11.568Z,4.90
2017-10-30T19:41:38.031Z,4.90
2017-10-30T19:44:04.352Z,5.00
2017-10-30T19:46:30.783Z,5.00
2017-10-30T19:48:57.138Z,5.10
2017-10-30T19:51:23.561Z,5.10
2017-10-30T19:53:49.891Z,5.10
2017-10-30T19:56:16.196Z,5.20
2017-10-30T19:58:42.571Z,5.20
2017-10-30T20:01:08.930Z,5.20
2017-10-30T20:03:35.386Z,5.30
2017-10-30T20:06:07.954Z,5.30
2017-10-30T20:08:41.190Z,5.30
2017-10-30T20:11:13.758Z,5.30
2017-10-30T20:13:40.328Z,5.40
2017-10-30T20:16:06.809Z,5.30
2017-10-30T20:18:33.080Z,5.30
2017-10-30T20:20:59.418Z,5.30
2017-10-30T20:23:25.848Z,5.20
2017-10-30T20:25:52.202Z,5.20
2017-10-30T20:28:18.469Z,5.20
2017-10-30T20:30:44.831Z,5.20
2017-10-30T20:33:11.133Z,5.20
2017-10-30T20:35:37.466Z,5.20
2017-10-30T20:38:04.107Z,5.30
2017-10-30T20:40:30.429Z,5.30
2017-10-30T20:42:56.741Z,5.40
2017-10-30T20:45:23.872Z,5.50
2017-10-30T20:47:50.191Z,5.50
2017-10-30T20:50:17.002Z,5.50
2017-10-30T20:52:43.561Z,5.50
2017-10-30T20:55:09.923Z,5.50
2017-10-30T20:57:36.992Z,5.50
2017-10-30T21:00:03.331Z,5.50
2017-10-30T21:02:29.706Z,5.50
2017-10-30T21:04:57.218Z,5.50
2017-10-30T21:07:23.570Z,5.50
2017-10-30T21:09:49.950Z,5.50
2017-10-30T21:12:16.250Z,5.40
2017-10-30T21:14:42.577Z,5.40
2017-10-30T21:17:08.922Z,5.40
2017-10-30T21:19:35.231Z,5.50
2017-10-30T21:22:01.576Z,5.50
2017-10-30T21:24:27.930Z,5.50
2017-10-30T21:26:54.386Z,5.60
2017-10-30T21:29:21.444Z,5.50
2017-10-30T21:31:48.534Z,5.40
2017-10-30T21:34:14.878Z,5.40
2017-10-30T21:36:41.259Z,5.30
2017-10-30T21:39:08.315Z,5.20
2017-10-30T21:41:34.606Z,5.20
2017-10-30T21:44:00.899Z,5.20
2017-10-30T21:46:27.230Z,5.20
2017-10-30T21:48:53.544Z,5.30
2017-10-30T21:51:19.853Z,5.30
2017-10-30T21:53:46.936Z,5.20
2017-10-30T21:56:13.267Z,5.20
2017-10-30T21:58:39.643Z,5.10
2017-10-30T22:01:05.954Z,5.20
2017-10-30T22:03:32.302Z,5.10
2017-10-30T22:05:58.686Z,5.10
2017-10-30T22:08:25.095Z,5.10
2017-10-30T22:10:51.484Z,5.00
2017-10-30T22:13:17.793Z,5.00
2017-10-30T22:15:44.949Z,5.00
2017-10-30T22:18:14.109Z,5.00
2017-10-30T22:20:41.156Z,5.10
2017-10-30T22:23:08.279Z,5.10
2017-10-30T22:25:34.596Z,5.10
2017-10-30T22:28:01.055Z,5.10
2017-10-30T22:30:27.429Z,5.10
2017-10-30T22:32:53.743Z,5.10
2017-10-30T22:35:20.041Z,5.10
2017-10-30T22:37:46.436Z,5.20
2017-10-30T22:40:12.740Z,5.20
2017-10-30T22:42:39.068Z,5.30
2017-10-30T22:45:05.385Z,5.40
2017-10-30T22:47:32.461Z,5.50
2017-10-30T22:49:58.741Z,5.60
2017-10-30T22:52:25.079Z,5.60
2017-10-30T22:54:52.166Z,5.60
2017-10-30T22:57:18.490Z,5.60
2017-10-30T22:59:44.797Z,5.60
2017-10-30T23:02:11.837Z,5.60
2017-10-30T23:04:38.182Z,5.60
2017-10-30T23:07:05.262Z,5.70
2017-10-30T23:09:31.532Z,5.70
2017-10-30T23:11:57.826Z,5.70
2017-10-30T23:14:24.160Z,5.70
2017-10-30T23:16:51.317Z,5.70
2017-10-30T23:19:17.643Z,5.80
2017-10-30T23:21:44.027Z,5.70
2017-10-30T23:24:10.367Z,5.70
2017-10-30T23:26:37.445Z,5.70
2017-10-30T23:29:03.741Z,5.70
2017-10-30T23:31:30.097Z,5.70
2017-10-30T23:33:56.435Z,5.80
2017-10-30T23:36:22.915Z,5.80
2017-10-30T23:38:49.526Z,5.80
2017-10-30T23:41:15.826Z,5.80
2017-10-30T23:43:42.956Z,5.80
2017-10-30T23:46:10.052Z,5.80
2017-10-30T23:48:36.331Z,5.80
2017-10-30T23:51:02.640Z,5.90
2017-10-30T23:53:29.221Z,5.90
2017-10-30T23:55:56.322Z,5.90
2017-10-30T23:58:23.295Z,5.90
